Time;durP1;ratioP1;P1;durP2;ratioP2;P2;SDS_P1;SDS_P2;PMS_P1;PMS_P2;Temp;Humidity;BMP_temperature;BMP_pressure;BME280_temperature;BME280_humidity;BME280_pressure;Samples;Min_cycle;Max_cycle;Signal;HPM_P1;HPM_P2
2022/08/24 00:01:54;;;;;;;;;;;;;;;18.26;98.59;95019.38;5094347;28;1638;-48
2022/08/24 00:04:20;;;;;;;;;;;;;;;18.35;98.34;95009.19;5112227;28;1584;-48
2022/08/24 00:06:46;;;;;;;;;;;;;;;18.17;99.35;95007.13;5112353;28;1910;-49
2022/08/24 00:09:12;;;;;;;;;;;;;;;18.25;98.84;95000.66;5130201;27;1538;-48
2022/08/24 00:11:38;;;;;;;;;;;;;;;18.21;99.68;95011.09;5132151;27;1578;-48
2022/08/24 00:14:04;;;;;;;;;;;;;;;18.21;99.20;95002.13;5132323;27;1563;-48
2022/08/24 00:16:30;;;;;;;;;;;;;;;18.29;98.46;94996.50;5114035;27;1601;-48
2022/08/24 00:18:56;;;;;;;;;;;;;;;18.39;98.79;94998.75;5112199;28;1536;-49
2022/08/24 00:21:22;;;;;;;;;;;;;;;18.17;97.41;95003.59;5111962;28;1593;-49
2022/08/24 00:23:48;;;;;;;;;;;;;;;18.12;98.39;94998.84;5111036;27;1530;-48
2022/08/24 00:26:14;;;;;;;;;;;;;;;18.20;98.03;95001.31;5093844;28;1923;-48
2022/08/24 00:28:41;;;;;;;;;;;;;;;18.19;98.86;94996.91;5111897;28;1573;-48
2022/08/24 00:31:07;;;;;;;;;;;;;;;18.07;99.65;94996.75;5111974;28;1793;-49
2022/08/24 00:33:33;;;;;;;;;;;;;;;18.13;98.85;94989.66;5111606;28;1523;-48
2022/08/24 00:35:59;;;;;;;;;;;;;;;18.22;98.70;94995.69;5111691;28;1519;-48
2022/08/24 00:38:25;;;;;;;;;;;;;;;18.19;99.18;94999.63;5111890;28;1586;-48
2022/08/24 00:40:51;;;;;;;;;;;;;;;18.19;98.49;94987.97;5093712;28;1600;-48
2022/08/24 00:43:22;;;;;;;;;;;;;;;18.18;98.57;94986.34;5111433;28;1562;-49
2022/08/24 00:46:11;;;;;;;;;;;;;;;18.21;99.40;94975.06;5111802;28;1917;-48
2022/08/24 00:48:39;;;;;;;;;;;;;;;18.25;99.40;94974.44;5120791;27;1617;-48
2022/08/24 00:51:10;;;;;;;;;;;;;;;18.10;97.27;94976.56;5131653;27;1541;-48
2022/08/24 00:53:39;;;;;;;;;;;;;;;17.84;98.75;94982.84;5131698;27;1565;-49
2022/08/24 00:56:09;;;;;;;;;;;;;;;17.71;98.96;94989.91;5131351;27;1530;-48
2022/08/24 00:58:37;;;;;;;;;;;;;;;17.74;99.66;94997.59;5131365;27;1594;-48
2022/08/24 01:01:05;;;;;;;;;;;;;;;17.89;98.63;94991.16;5131271;27;1584;-48
2022/08/24 01:03:32;;;;;;;;;;;;;;;17.98;97.77;94989.91;5131386;27;1583;-48
2022/08/24 01:05:58;;;;;;;;;;;;;;;17.81;99.24;95004.88;5131864;28;1909;-48
2022/08/24 01:08:24;;;;;;;;;;;;;;;17.60;99.24;95001.34;5111159;28;1547;-48
2022/08/24 01:10:53;;;;;;;;;;;;;;;17.65;99.04;95001.56;5111771;28;1618;-48
2022/08/24 01:13:20;;;;;;;;;;;;;;;17.67;98.98;95004.06;5111176;28;1497;-48
2022/08/24 01:15:48;;;;;;;;;;;;;;;17.61;99.86;95008.44;5111327;28;1587;-49
2022/08/24 01:21:06;;;;;;;;;;;;;;;17.71;99.46;95008.00;5130452;28;1557;-48
2022/08/24 01:23:35;;;;;;;;;;;;;;;17.80;99.69;95008.63;5131335;28;1586;-48
2022/08/24 01:26:01;;;;;;;;;;;;;;;17.90;99.19;95009.88;5131431;28;1990;-48
2022/08/24 01:28:29;;;;;;;;;;;;;;;17.90;99.70;95001.78;5131746;28;1395;-48
2022/08/24 01:30:55;;;;;;;;;;;;;;;17.93;100.00;95009.47;5131281;28;1599;-48
2022/08/24 01:33:23;;;;;;;;;;;;;;;18.01;99.82;95005.72;5131353;28;1584;-48
2022/08/24 01:35:49;;;;;;;;;;;;;;;17.98;98.96;95000.72;5133562;27;1478;-48
2022/08/24 01:38:16;;;;;;;;;;;;;;;18.13;98.71;94998.59;5135271;27;1703;-48
2022/08/24 01:40:45;;;;;;;;;;;;;;;18.05;100.00;95006.13;5135207;27;1546;-48
2022/08/24 01:43:12;;;;;;;;;;;;;;;17.86;99.41;95010.53;5117089;27;1458;-48
2022/08/24 01:45:38;;;;;;;;;;;;;;;17.95;99.16;95007.38;5117620;27;1300;-49
2022/08/24 01:48:04;;;;;;;;;;;;;;;17.90;99.76;95014.47;5114964;28;1906;-49
2022/08/24 01:50:30;;;;;;;;;;;;;;;17.95;99.29;95010.09;5115098;27;1976;-48
2022/08/24 01:53:00;;;;;;;;;;;;;;;17.90;100.00;95011.75;5097196;28;1404;-48
2022/08/24 01:55:27;;;;;;;;;;;;;;;17.92;100.00;95006.97;5114691;28;1574;-48
2022/08/24 01:57:53;;;;;;;;;;;;;;;18.09;100.00;95002.78;5115016;27;1560;-48
2022/08/24 02:00:19;;;;;;;;;;;;;;;17.93;100.00;95009.47;5114782;28;1552;-48
2022/08/24 02:02:45;;;;;;;;;;;;;;;17.72;100.00;95006.97;5114802;27;1571;-48
2022/08/24 02:05:13;;;;;;;;;;;;;;;17.90;99.96;95012.59;5114678;28;1603;-48
2022/08/24 02:07:39;;;;;;;;;;;;;;;18.04;99.33;95008.00;5114576;27;1989;-48
2022/08/24 02:10:07;;;;;;;;;;;;;;;18.08;99.09;95011.94;5096716;28;1548;-48
2022/08/24 02:12:34;;;;;;;;;;;;;;;18.12;98.97;95010.47;5114601;27;1558;-48
2022/08/24 02:15:01;;;;;;;;;;;;;;;17.91;100.00;95016.16;5114431;28;1505;-49
2022/08/24 02:17:27;;;;;;;;;;;;;;;17.80;100.00;95011.34;5114397;28;1545;-48
2022/08/24 02:19:54;;;;;;;;;;;;;;;17.83;100.00;95014.47;5114576;27;1547;-48
2022/08/24 02:22:20;;;;;;;;;;;;;;;17.90;100.00;95020.69;5114369;28;1511;-48
2022/08/24 02:24:46;;;;;;;;;;;;;;;17.87;100.00;95025.69;5114516;27;1523;-48
2022/08/24 02:27:13;;;;;;;;;;;;;;;17.79;100.00;95024.00;5114181;28;1906;-48
2022/08/24 02:29:39;;;;;;;;;;;;;;;17.92;100.00;95018.63;5114286;28;1543;-48
2022/08/24 02:32:06;;;;;;;;;;;;;;;18.04;100.00;95028.78;5114217;27;1721;-48
2022/08/24 02:34:32;;;;;;;;;;;;;;;18.10;100.00;95023.38;5132129;27;1526;-48
2022/08/24 02:36:58;;;;;;;;;;;;;;;18.23;100.00;95029.81;5134406;27;1590;-48
2022/08/24 02:39:24;;;;;;;;;;;;;;;18.24;100.00;95036.88;5134188;27;1549;-48
2022/08/24 02:41:51;;;;;;;;;;;;;;;18.24;100.00;95036.88;5134212;27;1595;-49
2022/08/24 02:44:17;;;;;;;;;;;;;;;18.12;100.00;95042.94;5128999;27;1531;-50
2022/08/24 02:46:43;;;;;;;;;;;;;;;18.14;100.00;95043.56;5112854;27;1918;-48
2022/08/24 02:49:10;;;;;;;;;;;;;;;18.13;100.00;95047.31;5113966;28;1666;-49
2022/08/24 02:51:36;;;;;;;;;;;;;;;18.30;100.00;95038.75;5113600;28;1579;-49
2022/08/24 02:54:04;;;;;;;;;;;;;;;18.20;100.00;95035.66;5113469;28;1536;-49
2022/08/24 02:56:30;;;;;;;;;;;;;;;18.23;100.00;95038.78;5131823;27;1454;-49
2022/08/24 02:58:57;;;;;;;;;;;;;;;18.21;100.00;95038.16;5134148;27;1697;-48
2022/08/24 03:01:23;;;;;;;;;;;;;;;18.19;100.00;95050.22;5133579;27;1668;-49
2022/08/24 03:03:49;;;;;;;;;;;;;;;18.12;100.00;95052.94;5133966;27;1534;-48
2022/08/24 03:06:15;;;;;;;;;;;;;;;18.12;100.00;95050.25;5133356;27;1980;-49
2022/08/24 03:08:42;;;;;;;;;;;;;;;18.13;100.00;95060.81;5133810;27;1499;-49
2022/08/24 03:11:08;;;;;;;;;;;;;;;18.00;100.00;95058.13;5133305;27;1582;-49
2022/08/24 03:13:34;;;;;;;;;;;;;;;18.07;100.00;95058.97;5133848;27;1533;-49
2022/08/24 03:16:01;;;;;;;;;;;;;;;18.05;100.00;95061.06;5133340;27;1539;-48
2022/08/24 03:18:27;;;;;;;;;;;;;;;18.11;100.00;95060.22;5133784;27;1528;-48
2022/08/24 03:20:53;;;;;;;;;;;;;;;18.28;100.00;95070.59;5133290;27;1534;-48
2022/08/24 03:23:19;;;;;;;;;;;;;;;18.19;100.00;95072.69;5133599;27;1594;-48
2022/08/24 03:25:46;;;;;;;;;;;;;;;18.05;100.00;95074.59;5109525;27;2730;-48
2022/08/24 03:28:12;;;;;;;;;;;;;;;18.12;100.00;95078.13;5111954;27;2328;-48
2022/08/24 03:30:39;;;;;;;;;;;;;;;18.06;100.00;95087.09;5129000;27;2422;-48
2022/08/24 03:33:05;;;;;;;;;;;;;;;18.16;100.00;95077.72;5127688;27;1460;-48
2022/08/24 03:35:32;;;;;;;;;;;;;;;18.15;100.00;95076.84;5124722;27;1235;-48
2022/08/24 03:37:59;;;;;;;;;;;;;;;18.10;100.00;95087.50;5124552;27;1379;-48
2022/08/24 03:40:25;;;;;;;;;;;;;;;18.26;100.00;95089.75;5123870;27;1373;-48
2022/08/24 03:42:51;;;;;;;;;;;;;;;18.27;100.00;95086.00;5123914;27;1456;-48
2022/08/24 03:45:17;;;;;;;;;;;;;;;18.27;100.00;95091.44;5122280;27;1470;-48
2022/08/24 03:47:44;;;;;;;;;;;;;;;18.19;100.00;95085.38;5122071;27;1905;-48
2022/08/24 03:50:11;;;;;;;;;;;;;;;18.27;100.00;95077.06;5120143;27;1411;-48
2022/08/24 03:52:37;;;;;;;;;;;;;;;18.35;100.00;95076.84;5119751;27;1644;-48
2022/08/24 03:55:05;;;;;;;;;;;;;;;18.27;100.00;95086.00;5116883;27;1397;-48
2022/08/24 03:57:31;;;;;;;;;;;;;;;18.23;100.00;95081.22;5115133;27;1229;-48
2022/08/24 03:59:57;;;;;;;;;;;;;;;18.42;100.00;95074.97;5114203;27;1238;-48
2022/08/24 04:02:23;;;;;;;;;;;;;;;18.39;100.00;95083.50;5114775;27;1473;-49
2022/08/24 04:04:49;;;;;;;;;;;;;;;18.61;100.00;95069.69;5112360;28;1486;-48
2022/08/24 04:07:16;;;;;;;;;;;;;;;18.84;99.73;95075.47;5112069;27;1909;-48
2022/08/24 04:09:42;;;;;;;;;;;;;;;19.02;99.03;95077.47;5112551;27;1616;-49
2022/08/24 04:12:08;;;;;;;;;;;;;;;19.15;98.29;95071.16;5112059;28;1606;-50
2022/08/24 04:14:34;;;;;;;;;;;;;;;19.33;97.47;95072.31;5130545;27;1338;-48
2022/08/24 04:17:00;;;;;;;;;;;;;;;19.43;96.36;95080.81;5132130;27;1597;-48
2022/08/24 04:19:26;;;;;;;;;;;;;;;19.56;95.76;95088.00;5132122;27;1535;-48
2022/08/24 04:21:52;;;;;;;;;;;;;;;19.63;95.09;95083.38;5132338;27;1598;-48
2022/08/24 04:24:19;;;;;;;;;;;;;;;19.66;95.13;95088.38;5132499;27;1402;-48
2022/08/24 04:26:45;;;;;;;;;;;;;;;19.74;94.43;95092.75;5132077;27;1993;-48
2022/08/24 04:29:12;;;;;;;;;;;;;;;19.68;95.03;95095.25;5132306;27;1684;-48
2022/08/24 04:31:40;;;;;;;;;;;;;;;19.70;95.31;95093.13;5131920;27;1597;-48
2022/08/24 04:34:06;;;;;;;;;;;;;;;19.78;95.84;95099.38;5132160;27;1583;-49
2022/08/24 04:36:33;;;;;;;;;;;;;;;19.42;97.25;95100.84;5132163;27;1590;-47
2022/08/24 04:39:00;;;;;;;;;;;;;;;19.19;97.51;95104.09;5132217;27;1634;-48
2022/08/24 04:41:26;;;;;;;;;;;;;;;19.04;99.04;95109.78;5127279;27;2624;-48
2022/08/24 04:43:52;;;;;;;;;;;;;;;18.80;99.96;95114.88;5119964;27;2045;-47
2022/08/24 04:46:18;;;;;;;;;;;;;;;18.80;98.63;95101.34;5116147;27;2509;-48
2022/08/24 04:48:45;;;;;;;;;;;;;;;18.76;100.00;95110.06;5121931;27;1476;-48
2022/08/24 04:51:12;;;;;;;;;;;;;;;18.64;100.00;95110.72;5116792;27;2422;-48
2022/08/24 04:53:39;;;;;;;;;;;;;;;18.70;100.00;95111.72;5111430;28;1567;-48
2022/08/24 04:56:10;;;;;;;;;;;;;;;18.64;100.00;95112.59;5111568;27;1537;-48
2022/08/24 04:58:36;;;;;;;;;;;;;;;18.61;100.00;95107.59;5111548;28;1586;-48
2022/08/24 05:01:06;;;;;;;;;;;;;;;18.63;100.00;95108.19;5111513;28;1673;-48
2022/08/24 05:03:32;;;;;;;;;;;;;;;18.60;100.00;95111.34;5119111;27;2418;-48
2022/08/24 05:05:58;;;;;;;;;;;;;;;18.67;100.00;95104.06;5113341;28;1918;-48
2022/08/24 05:08:24;;;;;;;;;;;;;;;18.80;100.00;95103.16;5099051;28;1300;-48
2022/08/24 05:10:50;;;;;;;;;;;;;;;18.91;100.00;95097.09;5124647;27;1382;-48
2022/08/24 05:13:17;;;;;;;;;;;;;;;19.08;100.00;95097.47;5111193;28;1614;-48
2022/08/24 05:15:45;;;;;;;;;;;;;;;19.36;98.40;95101.72;5129315;28;1543;-48
2022/08/24 05:18:12;;;;;;;;;;;;;;;19.60;98.58;95100.94;5130983;28;1503;-48
2022/08/24 05:20:38;;;;;;;;;;;;;;;19.77;96.95;95101.28;5131264;28;1609;-48
2022/08/24 05:23:04;;;;;;;;;;;;;;;19.93;96.50;95107.22;5131380;28;1529;-48
2022/08/24 05:25:31;;;;;;;;;;;;;;;20.06;95.48;95109.81;5131406;28;1614;-48
2022/08/24 05:27:57;;;;;;;;;;;;;;;20.15;94.62;95111.22;5131345;28;1906;-48
2022/08/24 05:30:23;;;;;;;;;;;;;;;20.19;94.05;95115.13;5131351;28;1722;-48
2022/08/24 05:32:49;;;;;;;;;;;;;;;20.27;93.48;95116.75;5130935;28;1424;-48
2022/08/24 05:35:15;;;;;;;;;;;;;;;20.33;93.57;95104.16;5131373;28;1548;-48
2022/08/24 05:37:42;;;;;;;;;;;;;;;20.44;92.48;95106.97;5131103;28;1572;-48
2022/08/24 05:40:09;;;;;;;;;;;;;;;20.47;92.51;95111.13;5126187;28;2481;-47
2022/08/24 05:42:35;;;;;;;;;;;;;;;20.51;92.14;95106.91;5125002;28;1476;-48
2022/08/24 05:45:02;;;;;;;;;;;;;;;20.56;92.63;95106.22;5124086;27;1772;-48
2022/08/24 05:47:28;;;;;;;;;;;;;;;20.59;92.62;95108.50;5123040;28;2098;-48
2022/08/24 05:49:55;;;;;;;;;;;;;;;20.66;91.86;95098.44;5122998;28;1721;-48
2022/08/24 05:52:21;;;;;;;;;;;;;;;20.75;91.00;95101.66;5120810;28;1588;-48
2022/08/24 05:54:52;;;;;;;;;;;;;;;20.89;90.72;95092.31;5121017;28;1684;-49
2022/08/24 05:57:18;;;;;;;;;;;;;;;21.10;90.01;95085.59;5119329;28;1809;-49
2022/08/24 05:59:44;;;;;;;;;;;;;;;21.31;88.75;95089.72;5118490;28;2644;-48
2022/08/24 06:02:10;;;;;;;;;;;;;;;21.43;87.02;95087.84;5123447;28;3416;-49
2022/08/24 06:04:37;;;;;;;;;;;;;;;21.56;86.44;95086.88;5106452;28;1534;-48
2022/08/24 06:07:10;;;;;;;;;;;;;;;21.64;86.67;95092.00;5124803;28;1914;-48
2022/08/24 06:09:37;;;;;;;;;;;;;;;21.77;85.60;95095.56;5125034;28;1874;-48
2022/08/24 06:12:03;;;;;;;;;;;;;;;21.77;84.89;95087.41;5123491;28;1554;-49
2022/08/24 06:14:29;;;;;;;;;;;;;;;21.87;86.57;95079.50;5122380;28;1532;-48
2022/08/24 06:16:55;;;;;;;;;;;;;;;21.98;84.78;95088.75;5123098;28;1341;-48
2022/08/24 06:19:21;;;;;;;;;;;;;;;22.16;83.11;95094.13;5120289;28;1321;-48
2022/08/24 06:21:49;;;;;;;;;;;;;;;22.19;82.25;95090.91;5121910;27;1486;-48
2022/08/24 06:24:15;;;;;;;;;;;;;;;22.39;82.66;95089.78;5122946;27;1369;-48
2022/08/24 06:29:27;;;;;;;;;;;;;;;22.58;80.99;95088.59;5122853;27;1268;-48
2022/08/24 06:31:54;;;;;;;;;;;;;;;22.81;79.43;95086.91;5121203;27;1608;-48
2022/08/24 06:34:21;;;;;;;;;;;;;;;22.92;78.37;95083.34;5119143;27;1747;-48
2022/08/24 06:36:48;;;;;;;;;;;;;;;23.05;78.19;95090.47;5119749;27;1369;-48
2022/08/24 06:39:14;;;;;;;;;;;;;;;23.14;76.86;95091.72;5118055;27;1345;-49
2022/08/24 06:41:40;;;;;;;;;;;;;;;23.23;77.32;95097.63;5116947;27;1341;-49
2022/08/24 06:44:06;;;;;;;;;;;;;;;23.18;76.05;95101.09;5115979;27;1436;-49
2022/08/24 06:46:32;;;;;;;;;;;;;;;23.24;74.54;95098.47;5114438;27;1942;-48
2022/08/24 06:48:58;;;;;;;;;;;;;;;23.43;76.34;95108.16;5114011;28;1623;-48
2022/08/24 06:51:24;;;;;;;;;;;;;;;23.76;74.12;95103.84;5114227;27;1609;-48
2022/08/24 06:53:52;;;;;;;;;;;;;;;24.07;74.72;95104.41;5113268;27;1606;-49
2022/08/24 06:56:18;;;;;;;;;;;;;;;24.36;71.33;95114.19;5113676;27;1559;-49
2022/08/24 06:58:44;;;;;;;;;;;;;;;24.94;68.72;95114.00;5095687;27;1556;-49
2022/08/24 07:01:17;;;;;;;;;;;;;;;25.63;66.19;95108.06;5114049;27;1602;-49
2022/08/24 07:03:43;;;;;;;;;;;;;;;26.48;63.90;95108.34;5132716;27;1466;-49
2022/08/24 07:06:11;;;;;;;;;;;;;;;26.62;63.67;95106.00;5133498;27;1957;-49
2022/08/24 07:08:37;;;;;;;;;;;;;;;26.40;62.88;95111.53;5134048;27;1611;-49
2022/08/24 07:11:04;;;;;;;;;;;;;;;26.09;63.22;95108.53;5133887;27;1523;-49
2022/08/24 07:13:31;;;;;;;;;;;;;;;25.78;65.17;95114.75;5133643;27;1419;-48
2022/08/24 07:15:57;;;;;;;;;;;;;;;25.52;66.56;95120.78;5133547;27;1547;-48
2022/08/24 07:18:24;;;;;;;;;;;;;;;25.32;64.46;95120.53;5133860;27;1562;-48
2022/08/24 07:20:50;;;;;;;;;;;;;;;25.20;66.11;95125.28;5133478;27;1459;-48
2022/08/24 07:23:16;;;;;;;;;;;;;;;25.14;65.50;95113.44;5133565;27;1548;-48
2022/08/24 07:25:43;;;;;;;;;;;;;;;25.12;66.34;95115.63;5133476;27;1539;-48
2022/08/24 07:28:10;;;;;;;;;;;;;;;25.25;66.36;95107.06;5133225;27;1913;-48
2022/08/24 07:30:37;;;;;;;;;;;;;;;25.33;65.25;95114.00;5133486;27;1594;-48
2022/08/24 07:33:03;;;;;;;;;;;;;;;25.42;64.70;95119.84;5132553;27;1488;-48
2022/08/24 07:35:31;;;;;;;;;;;;;;;25.36;64.88;95118.13;5133025;27;1687;-48
2022/08/24 07:37:57;;;;;;;;;;;;;;;25.35;65.14;95113.75;5133092;27;1565;-49
2022/08/24 07:40:24;;;;;;;;;;;;;;;25.12;64.66;95108.22;5133041;27;1610;-48
2022/08/24 07:42:52;;;;;;;;;;;;;;;24.96;65.32;95113.75;5133103;27;1860;-48
2022/08/24 07:45:18;;;;;;;;;;;;;;;24.92;65.88;95114.22;5114180;27;1562;-48
2022/08/24 07:47:44;;;;;;;;;;;;;;;24.92;65.97;95114.22;5112513;28;1909;-48
2022/08/24 07:50:11;;;;;;;;;;;;;;;25.03;65.54;95111.66;5112521;28;1546;-48
2022/08/24 07:52:37;;;;;;;;;;;;;;;24.88;66.68;95113.09;5112678;28;1846;-49
2022/08/24 07:55:04;;;;;;;;;;;;;;;24.98;66.85;95112.41;5112571;28;1579;-49
2022/08/24 07:57:30;;;;;;;;;;;;;;;25.07;65.42;95104.59;5094778;28;1475;-48
2022/08/24 07:59:59;;;;;;;;;;;;;;;25.00;67.48;95114.88;5112503;28;1668;-48
2022/08/24 08:02:26;;;;;;;;;;;;;;;25.22;65.46;95095.75;5112491;27;1858;-48
2022/08/24 08:04:55;;;;;;;;;;;;;;;25.29;66.63;95099.19;5112777;28;1396;-48
2022/08/24 08:07:21;;;;;;;;;;;;;;;25.25;68.09;95095.25;5112168;27;1913;-48
2022/08/24 08:09:48;;;;;;;;;;;;;;;25.18;66.00;95095.44;5112626;27;1541;-48
2022/08/24 08:12:14;;;;;;;;;;;;;;;25.04;66.66;95092.25;5112086;27;1628;-48
2022/08/24 08:14:40;;;;;;;;;;;;;;;25.14;65.32;95095.13;5112346;27;1637;-48
2022/08/24 08:17:06;;;;;;;;;;;;;;;25.09;65.76;95091.50;5112152;28;1540;-49
2022/08/24 08:19:33;;;;;;;;;;;;;;;25.00;66.51;95099.28;5112423;28;1446;-48
2022/08/24 08:24:43;;;;;;;;;;;;;;;25.11;65.71;95095.63;5132507;27;1646;-48
2022/08/24 08:27:10;;;;;;;;;;;;;;;24.99;65.28;95105.03;5131842;27;1988;-49
2022/08/24 08:29:40;;;;;;;;;;;;;;;25.10;66.63;95102.19;5131865;27;1539;-48
2022/08/24 08:32:08;;;;;;;;;;;;;;;25.25;66.01;95103.47;5131779;27;1406;-49
2022/08/24 08:34:34;;;;;;;;;;;;;;;25.42;66.14;95097.94;5131823;27;1539;-48
2022/08/24 08:37:01;;;;;;;;;;;;;;;25.39;64.61;95098.47;5114345;27;1591;-48
2022/08/24 08:39:27;;;;;;;;;;;;;;;25.35;64.71;95109.09;5111882;27;1515;-48
2022/08/24 08:42:13;;;;;;;;;;;;;;;25.28;64.30;95105.72;5112101;28;1521;-48
2022/08/24 08:44:54;;;;;;;;;;;;;;;25.28;64.94;95111.19;5121272;27;1459;-48
2022/08/24 08:47:49;;;;;;;;;;;;;;;25.29;64.58;95104.66;5129761;27;1913;-48
2022/08/24 08:50:15;;;;;;;;;;;;;;;25.33;65.42;95100.31;5076285;27;1604;-49
2022/08/24 08:52:44;;;;;;;;;;;;;;;25.28;65.93;95101.06;5131902;27;1557;-48
2022/08/24 08:55:26;;;;;;;;;;;;;;;25.24;65.98;95101.84;5131542;27;1536;-48
2022/08/24 08:58:13;;;;;;;;;;;;;;;25.17;66.82;95084.75;5131587;27;1493;-48
2022/08/24 09:01:00;;;;;;;;;;;;;;;25.14;66.62;95084.19;5100126;27;1597;-49
2022/08/24 09:03:29;;;;;;;;;;;;;;;25.05;68.30;95085.69;5131392;27;1605;-49
2022/08/24 09:06:13;;;;;;;;;;;;;;;25.06;67.01;95084.63;5131599;27;1358;-49
2022/08/24 09:08:39;;;;;;;;;;;;;;;25.10;66.04;95082.22;5131533;27;1535;-48
2022/08/24 09:11:11;;;;;;;;;;;;;;;25.19;66.05;95086.13;5131403;28;1509;-48
2022/08/24 09:13:53;;;;;;;;;;;;;;;25.27;66.31;95084.91;5131785;28;1515;-48
2022/08/24 09:16:30;;;;;;;;;;;;;;;25.23;66.27;95081.03;5131202;28;1528;-49
2022/08/24 09:19:02;;;;;;;;;;;;;;;25.22;65.71;95084.81;5131501;28;1665;-49
2022/08/24 09:21:43;;;;;;;;;;;;;;;25.32;66.04;95082.22;5131517;28;1530;-49
2022/08/24 09:24:15;;;;;;;;;;;;;;;25.41;64.64;95083.44;5131368;28;1544;-49
2022/08/24 09:26:51;;;;;;;;;;;;;;;25.51;65.63;95079.97;5131308;28;2016;-49
2022/08/24 09:29:25;;;;;;;;;;;;;;;25.56;66.57;95073.75;5131469;28;1581;-48
2022/08/24 09:32:06;;;;;;;;;;;;;;;25.58;65.64;95077.06;5131329;28;1406;-49
2022/08/24 09:34:32;;;;;;;;;;;;;;;25.51;65.96;95078.06;5131599;28;1614;-48
2022/08/24 09:37:13;;;;;;;;;;;;;;;25.25;66.25;95062.44;5130941;28;1564;-49
2022/08/24 09:39:39;;;;;;;;;;;;;;;25.20;65.88;95067.84;5131113;28;1390;-48
2022/08/24 09:42:35;;;;;;;;;;;;;;;25.36;66.39;95066.94;5131308;28;1415;-48
2022/08/24 09:45:10;;;;;;;;;;;;;;;25.50;65.65;95062.75;5119982;27;1567;-48
2022/08/24 09:47:56;;;;;;;;;;;;;;;25.67;67.71;95064.56;5128841;28;1960;-48
2022/08/24 09:50:33;;;;;;;;;;;;;;;25.79;65.85;95059.75;5131571;28;1595;-49
2022/08/24 09:53:18;;;;;;;;;;;;;;;25.90;65.29;95055.19;5131083;28;1504;-49
2022/08/24 09:55:59;;;;;;;;;;;;;;;25.95;63.85;95054.44;5131749;27;1606;-48
2022/08/24 09:58:25;;;;;;;;;;;;;;;25.94;64.01;95047.31;5134753;27;1507;-49
2022/08/24 10:01:02;;;;;;;;;;;;;;;25.98;65.54;95045.72;5135252;27;1403;-49
2022/08/24 10:03:47;;;;;;;;;;;;;;;25.89;63.95;95040.66;5116820;27;1559;-49
2022/08/24 10:06:17;;;;;;;;;;;;;;;25.81;63.94;95032.94;5134918;27;1914;-48
2022/08/24 10:08:43;;;;;;;;;;;;;;;25.84;64.64;95035.16;5134539;27;1594;-48
2022/08/24 10:11:33;;;;;;;;;;;;;;;25.86;65.06;95032.16;5135064;27;1701;-48
2022/08/24 10:14:08;;;;;;;;;;;;;;;26.10;64.56;95038.97;5121378;27;2469;-49
2022/08/24 10:16:43;;;;;;;;;;;;;;;26.30;64.23;95027.34;5131384;27;1946;-50
2022/08/24 10:19:12;;;;;;;;;;;;;;;26.33;62.03;95025.97;5134558;27;1660;-49
2022/08/24 10:21:56;;;;;;;;;;;;;;;26.29;61.93;95030.31;5135048;27;1694;-48
2022/08/24 10:24:34;;;;;;;;;;;;;;;26.43;62.78;95033.47;5134502;27;1862;-49
2022/08/24 10:27:19;;;;;;;;;;;;;;;26.52;63.55;95028.28;5134716;27;2001;-48
2022/08/24 10:29:55;;;;;;;;;;;;;;;26.51;63.79;95027.47;5134587;27;1646;-48
2022/08/24 10:32:36;;;;;;;;;;;;;;;26.65;64.65;95027.84;5134615;27;1969;-48
2022/08/24 10:35:02;;;;;;;;;;;;;;;26.50;62.13;95034.03;5116261;27;2022;-49
2022/08/24 10:39:39;;;;;;;;;;;;;;;26.37;61.65;95029.84;5134365;27;1714;-48
2022/08/24 10:40:57;;;;;;;;;;;;;;;26.42;62.29;95040.84;5114386;28;1584;-49
2022/08/24 10:43:32;;;;;;;;;;;;;;;26.54;62.42;95040.66;5134275;27;1915;-49
2022/08/24 10:46:17;;;;;;;;;;;;;;;26.53;62.13;95033.53;5114260;28;1828;-49
2022/08/24 10:49:13;;;;;;;;;;;;;;;26.54;62.29;95031.59;5132207;27;1638;-49
2022/08/24 10:51:57;;;;;;;;;;;;;;;26.62;63.91;95023.75;5078514;27;1767;-49
2022/08/24 10:54:23;;;;;;;;;;;;;;;26.72;61.77;95027.63;5133794;27;1832;-48
2022/08/24 10:57:04;;;;;;;;;;;;;;;26.64;61.03;95029.78;5115988;27;1870;-48
2022/08/24 10:59:39;;;;;;;;;;;;;;;26.56;61.13;95024.78;5129950;27;2619;-48
2022/08/24 11:02:31;;;;;;;;;;;;;;;26.33;60.74;95022.41;5117520;27;2347;-48
2022/08/24 11:04:59;;;;;;;;;;;;;;;26.21;64.08;95017.94;5112127;27;2364;-48
2022/08/24 11:07:26;;;;;;;;;;;;;;;26.15;62.68;95019.00;5115657;27;1992;-49
2022/08/24 11:09:59;;;;;;;;;;;;;;;26.06;62.87;95020.56;5113094;28;1246;-49
2022/08/24 11:12:26;;;;;;;;;;;;;;;25.97;62.94;95030.34;5114776;27;1518;-48
2022/08/24 11:14:53;;;;;;;;;;;;;;;25.84;61.17;95026.94;5113792;27;1498;-49
2022/08/24 11:17:20;;;;;;;;;;;;;;;25.75;64.17;95028.50;5114810;27;2228;-48
2022/08/24 11:19:47;;;;;;;;;;;;;;;25.73;64.31;95030.66;5112919;27;1863;-48
2022/08/24 11:22:31;;;;;;;;;;;;;;;25.71;63.96;95027.38;5115300;27;2057;-48
2022/08/24 11:25:06;;;;;;;;;;;;;;;25.67;63.08;95018.84;5098187;28;1642;-48
2022/08/24 11:27:32;;;;;;;;;;;;;;;25.69;63.30;95021.31;5115240;27;1930;-48
2022/08/24 11:30:00;;;;;;;;;;;;;;;25.68;63.02;95028.69;5121755;27;1464;-48
2022/08/24 11:32:27;;;;;;;;;;;;;;;25.70;63.20;95023.78;5122222;27;1670;-48
2022/08/24 11:34:53;;;;;;;;;;;;;;;25.69;64.24;95016.66;5121035;27;1597;-49
2022/08/24 11:37:29;;;;;;;;;;;;;;;25.75;64.40;95014.81;5121391;27;1592;-49
2022/08/24 11:39:56;;;;;;;;;;;;;;;25.79;64.75;95012.38;5118730;27;1552;-49
2022/08/24 11:42:22;;;;;;;;;;;;;;;25.78;63.26;95011.56;5100892;27;1631;-49
2022/08/24 11:44:52;;;;;;;;;;;;;;;25.82;62.48;95003.63;5117980;27;1366;-49
2022/08/24 11:47:30;;;;;;;;;;;;;;;25.88;63.90;95003.41;5116351;27;1905;-49
2022/08/24 11:50:05;;;;;;;;;;;;;;;25.95;62.80;94986.78;5114833;27;1405;-49
2022/08/24 11:53:00;;;;;;;;;;;;;;;26.10;62.30;94983.34;5115726;27;1580;-49
2022/08/24 11:55:29;;;;;;;;;;;;;;;26.29;61.27;94986.47;5114633;27;1738;-49
2022/08/24 11:58:05;;;;;;;;;;;;;;;26.37;60.45;94982.41;5132860;27;1660;-49
2022/08/24 12:00:49;;;;;;;;;;;;;;;26.44;61.66;94975.59;5122208;27;1941;-49
2022/08/24 12:03:15;;;;;;;;;;;;;;;26.45;60.87;94971.78;5127490;27;2345;-49
2022/08/24 12:05:57;;;;;;;;;;;;;;;26.52;61.11;94974.28;5125652;27;1553;-49
2022/08/24 12:08:44;;;;;;;;;;;;;;;26.52;60.55;94979.78;5115724;27;1984;-49
2022/08/24 12:11:19;;;;;;;;;;;;;;;26.54;59.77;94966.66;5117320;27;1551;-49
2022/08/24 12:13:51;;;;;;;;;;;;;;;26.53;61.82;94964.97;5116337;27;1943;-49
2022/08/24 12:16:17;;;;;;;;;;;;;;;26.58;62.01;94965.03;5113839;27;2771;-49
2022/08/24 12:18:43;;;;;;;;;;;;;;;26.65;60.05;94956.56;5113013;27;1692;-49
2022/08/24 12:21:12;;;;;;;;;;;;;;;26.59;59.66;94958.47;5112615;27;2371;-49
2022/08/24 12:23:43;;;;;;;;;;;;;;;26.63;61.00;94970.53;5112606;27;1466;-49
2022/08/24 12:26:17;;;;;;;;;;;;;;;26.63;60.13;94959.56;5113020;27;1913;-49
2022/08/24 12:28:47;;;;;;;;;;;;;;;26.67;59.58;94955.22;5120524;27;1961;-49
2022/08/24 12:31:29;;;;;;;;;;;;;;;26.72;61.28;94957.16;5118869;27;1572;-49
2022/08/24 12:33:57;;;;;;;;;;;;;;;26.76;59.01;94951.97;5120983;27;2322;-49
2022/08/24 12:36:29;;;;;;;;;;;;;;;26.80;62.14;94947.59;5113619;27;1721;-49
2022/08/24 12:39:18;;;;;;;;;;;;;;;26.89;63.70;94948.72;5115064;27;1714;-49
2022/08/24 12:42:07;;;;;;;;;;;;;;;27.00;61.18;94941.38;5113715;27;1527;-50
2022/08/24 12:44:41;;;;;;;;;;;;;;;27.08;59.89;94943.56;5105705;27;1855;-49
2022/08/24 12:47:08;;;;;;;;;;;;;;;27.06;61.92;94941.09;5113206;27;1994;-49
2022/08/24 12:49:56;;;;;;;;;;;;;;;27.08;61.83;94933.41;5111884;27;1893;-49
2022/08/24 12:52:43;;;;;;;;;;;;;;;27.07;59.31;94931.78;5111120;27;1700;-49
2022/08/24 12:58:55;;;;;;;;;;;;;;;27.05;60.98;94920.25;5110186;28;1458;-49
2022/08/24 13:01:23;;;;;;;;;;;;;;;27.05;61.06;94913.91;5110466;28;1620;-49
2022/08/24 13:04:02;;;;;;;;;;;;;;;27.05;59.87;94911.19;5110279;28;1560;-49
2022/08/24 13:06:54;;;;;;;;;;;;;;;27.04;60.96;94906.81;5097655;28;2903;-49
2022/08/24 13:09:31;;;;;;;;;;;;;;;27.08;60.90;94905.16;5078498;28;2617;-49
2022/08/24 13:11:59;;;;;;;;;;;;;;;27.12;61.93;94899.97;5102772;28;2220;-49
2022/08/24 13:14:27;;;;;;;;;;;;;;;27.15;61.86;94894.75;5104010;28;1668;-49
2022/08/24 13:16:56;;;;;;;;;;;;;;;27.19;61.66;94904.09;5105579;28;1806;-49
2022/08/24 13:19:22;;;;;;;;;;;;;;;27.21;60.09;94893.66;5109287;28;1774;-49
2022/08/24 13:21:50;;;;;;;;;;;;;;;27.23;60.16;94896.94;5110368;28;1748;-49